Time;durP1;ratioP1;P1;durP2;ratioP2;P2;SDS_P1;SDS_P2;PMS_P1;PMS_P2;Temp;Humidity;BMP_temperature;BMP_pressure;BME280_temperature;BME280_humidity;BME280_pressure;Samples;Min_cycle;Max_cycle;Signal;HPM_P1;HPM_P2
2022/07/19 00:00:51;;;;;;;2.15;1.83;;;;;;;;;;5051714;28;20382;-81
2022/07/19 00:03:17;;;;;;;1.90;1.70;;;;;;;;;;5051461;28;20413;-81
2022/07/19 00:05:43;;;;;;;2.28;1.65;;;;;;;;;;5051597;28;20392;-81
2022/07/19 00:08:10;;;;;;;5.83;1.80;;;;;;;;;;5051837;28;20381;-81
2022/07/19 00:10:36;;;;;;;3.78;1.60;;;;;;;;;;5051548;28;20413;-81
2022/07/19 00:13:02;;;;;;;3.20;1.77;;;;;;;;;;5051513;28;20427;-82
2022/07/19 00:15:28;;;;;;;3.33;1.90;;;;;;;;;;5051572;28;20377;-81
2022/07/19 00:17:54;;;;;;;2.00;1.60;;;;;;;;;;5051486;28;20389;-82
2022/07/19 00:20:22;;;;;;;3.35;1.60;;;;;;;;;;5048128;28;20751;-81
2022/07/19 00:22:49;;;;;;;3.58;1.90;;;;;;;;;;5051607;28;20385;-82
2022/07/19 00:25:15;;;;;;;2.50;1.70;;;;;;;;;;5051306;28;20892;-81
2022/07/19 00:27:42;;;;;;;2.30;1.83;;;;;;;;;;5053080;28;20388;-82
2022/07/19 00:30:09;;;;;;;2.75;1.90;;;;;;;;;;5054913;28;20413;-81
2022/07/19 00:32:35;;;;;;;2.35;1.80;;;;;;;;;;5054873;28;20373;-81
2022/07/19 00:35:01;;;;;;;2.20;1.80;;;;;;;;;;5054648;28;20464;-81
2022/07/19 00:37:27;;;;;;;2.17;1.70;;;;;;;;;;5054776;28;20850;-81
2022/07/19 00:39:53;;;;;;;4.15;1.98;;;;;;;;;;5054810;28;20382;-82
2022/07/19 00:42:19;;;;;;;1.83;1.70;;;;;;;;;;5054981;28;20378;-81
2022/07/19 00:44:45;;;;;;;2.10;1.90;;;;;;;;;;5049606;28;20868;-82
2022/07/19 00:47:11;;;;;;;2.13;1.60;;;;;;;;;;5051124;28;20955;-82
2022/07/19 00:49:37;;;;;;;1.83;1.55;;;;;;;;;;5054982;28;20395;-82
2022/07/19 00:52:04;;;;;;;4.82;1.65;;;;;;;;;;5054564;28;20455;-81
2022/07/19 00:54:31;;;;;;;3.08;1.60;;;;;;;;;;5054602;28;20381;-81
2022/07/19 00:56:58;;;;;;;1.65;1.52;;;;;;;;;;5054525;28;20395;-81
2022/07/19 00:59:25;;;;;;;2.50;1.50;;;;;;;;;;5040627;28;20846;-81
2022/07/19 01:01:51;;;;;;;1.70;1.60;;;;;;;;;;5054336;28;20392;-81
2022/07/19 01:04:18;;;;;;;1.70;1.60;;;;;;;;;;5054468;28;20436;-81
2022/07/19 01:06:44;;;;;;;1.85;1.70;;;;;;;;;;5054159;28;20380;-81
2022/07/19 01:09:10;;;;;;;1.73;1.50;;;;;;;;;;5054304;28;20405;-81
2022/07/19 01:11:36;;;;;;;2.75;1.60;;;;;;;;;;5054183;28;20412;-81
2022/07/19 01:14:03;;;;;;;2.72;1.60;;;;;;;;;;5054223;28;20381;-81
2022/07/19 01:16:29;;;;;;;1.70;1.60;;;;;;;;;;5053983;28;20386;-81
2022/07/19 01:18:55;;;;;;;2.67;1.70;;;;;;;;;;5050985;28;20405;-81
2022/07/19 01:21:26;;;;;;;2.10;1.90;;;;;;;;;;5054093;28;20409;-81
2022/07/19 01:23:52;;;;;;;2.80;1.80;;;;;;;;;;5053940;28;20484;-81
2022/07/19 01:26:18;;;;;;;1.90;1.70;;;;;;;;;;5053867;28;20477;-81
2022/07/19 01:28:44;;;;;;;2.20;1.70;;;;;;;;;;5053838;28;20870;-81
2022/07/19 01:31:11;;;;;;;2.10;1.70;;;;;;;;;;5053863;28;20378;-81
2022/07/19 01:33:41;;;;;;;2.30;1.80;;;;;;;;;;5053733;28;20480;-81
2022/07/19 01:36:07;;;;;;;2.30;1.90;;;;;;;;;;5053729;28;20412;-81
2022/07/19 01:38:33;;;;;;;1.70;1.60;;;;;;;;;;5053620;28;20386;-81
2022/07/19 01:40:59;;;;;;;3.95;1.98;;;;;;;;;;5054091;28;20754;-81
2022/07/19 01:43:25;;;;;;;2.25;1.90;;;;;;;;;;5049910;28;20409;-81
2022/07/19 01:45:53;;;;;;;1.90;1.70;;;;;;;;;;5049385;28;20378;-81
2022/07/19 01:48:19;;;;;;;2.00;1.80;;;;;;;;;;5050408;28;20373;-82
2022/07/19 01:50:45;;;;;;;1.90;1.80;;;;;;;;;;5051475;28;20384;-81
2022/07/19 01:53:11;;;;;;;1.83;1.73;;;;;;;;;;5051409;28;20377;-81
2022/07/19 01:55:37;;;;;;;2.58;1.67;;;;;;;;;;5051251;28;20384;-81
2022/07/19 01:58:04;;;;;;;1.83;1.70;;;;;;;;;;5051299;28;20472;-82
2022/07/19 02:00:30;;;;;;;2.92;1.60;;;;;;;;;;5051322;28;20388;-81
2022/07/19 02:02:56;;;;;;;3.20;1.80;;;;;;;;;;5042580;28;20940;-82
2022/07/19 02:05:23;;;;;;;1.60;1.50;;;;;;;;;;5046112;28;20420;-82
2022/07/19 02:07:49;;;;;;;2.33;1.67;;;;;;;;;;5032311;28;20936;-81
2022/07/19 02:10:16;;;;;;;2.58;1.88;;;;;;;;;;5052138;28;20463;-81
2022/07/19 02:12:42;;;;;;;2.35;1.63;;;;;;;;;;5051558;28;20385;-82
2022/07/19 02:15:09;;;;;;;2.33;1.75;;;;;;;;;;5049197;28;20385;-81
2022/07/19 02:17:35;;;;;;;2.10;1.60;;;;;;;;;;5053355;28;20395;-81
2022/07/19 02:20:01;;;;;;;3.25;1.50;;;;;;;;;;5052031;28;20378;-82
2022/07/19 02:22:27;;;;;;;2.28;1.70;;;;;;;;;;5052870;28;20430;-82
2022/07/19 02:24:53;;;;;;;2.97;2.00;;;;;;;;;;5052695;28;20404;-82
2022/07/19 02:27:19;;;;;;;3.00;1.93;;;;;;;;;;5052999;28;20477;-82
2022/07/19 02:29:45;;;;;;;2.73;2.00;;;;;;;;;;5053362;28;20696;-82
2022/07/19 02:32:11;;;;;;;3.63;1.70;;;;;;;;;;5052735;28;20373;-82
2022/07/19 02:34:38;;;;;;;2.92;1.70;;;;;;;;;;5053072;28;20439;-82
2022/07/19 02:37:04;;;;;;;2.08;1.70;;;;;;;;;;5052413;28;20384;-82
2022/07/19 02:39:30;;;;;;;2.05;1.85;;;;;;;;;;5052764;28;20455;-82
2022/07/19 02:41:56;;;;;;;2.10;1.90;;;;;;;;;;5052513;28;20389;-82
2022/07/19 02:44:22;;;;;;;2.13;1.73;;;;;;;;;;5050593;28;20428;-82
2022/07/19 02:46:48;;;;;;;2.10;1.70;;;;;;;;;;5045730;28;20404;-82
2022/07/19 02:49:14;;;;;;;3.30;2.00;;;;;;;;;;5052194;28;20715;-82
2022/07/19 02:51:40;;;;;;;2.67;1.77;;;;;;;;;;5052165;28;20387;-82
2022/07/19 02:54:06;;;;;;;4.00;1.80;;;;;;;;;;5052394;28;20480;-82
2022/07/19 02:56:32;;;;;;;2.25;1.80;;;;;;;;;;5052245;28;20446;-82
2022/07/19 02:58:58;;;;;;;3.78;1.88;;;;;;;;;;5052261;28;20447;-82
2022/07/19 03:01:24;;;;;;;1.95;1.67;;;;;;;;;;5052290;28;20385;-82
2022/07/19 03:03:50;;;;;;;1.70;1.60;;;;;;;;;;5052037;28;20413;-82
2022/07/19 03:06:17;;;;;;;3.35;1.80;;;;;;;;;;5052059;28;20503;-82
2022/07/19 03:08:44;;;;;;;2.40;1.60;;;;;;;;;;5052308;28;20382;-82
2022/07/19 03:11:10;;;;;;;1.95;1.80;;;;;;;;;;5052249;28;20405;-82
2022/07/19 03:13:36;;;;;;;4.25;2.05;;;;;;;;;;5052441;28;20384;-82
2022/07/19 03:16:02;;;;;;;1.95;1.80;;;;;;;;;;5052325;28;20381;-82
2022/07/19 03:18:28;;;;;;;1.75;1.65;;;;;;;;;;5048716;28;20392;-82
2022/07/19 03:20:55;;;;;;;2.00;1.90;;;;;;;;;;5052118;28;20435;-82
2022/07/19 03:23:21;;;;;;;2.60;1.45;;;;;;;;;;5052027;28;20417;-82
2022/07/19 03:25:47;;;;;;;2.87;1.70;;;;;;;;;;5051986;28;20781;-82
2022/07/19 03:28:14;;;;;;;2.20;1.73;;;;;;;;;;5051854;28;20374;-82
2022/07/19 03:30:40;;;;;;;2.88;1.83;;;;;;;;;;5038399;28;20427;-82
2022/07/19 03:33:06;;;;;;;2.70;1.92;;;;;;;;;;5039683;28;20418;-82
2022/07/19 03:35:32;;;;;;;2.10;1.70;;;;;;;;;;5050292;28;20424;-82
2022/07/19 03:37:58;;;;;;;2.08;1.88;;;;;;;;;;5051962;28;20392;-82
2022/07/19 03:40:24;;;;;;;1.60;1.50;;;;;;;;;;5051867;28;20739;-82
2022/07/19 03:42:50;;;;;;;2.10;1.70;;;;;;;;;;5051085;28;20400;-82
2022/07/19 03:45:16;;;;;;;2.10;1.83;;;;;;;;;;5042985;28;20399;-82
2022/07/19 03:47:42;;;;;;;2.25;2.00;;;;;;;;;;5051687;28;20777;-83
2022/07/19 03:50:08;;;;;;;2.60;1.90;;;;;;;;;;5051903;28;20469;-82
2022/07/19 03:52:34;;;;;;;2.67;2.22;;;;;;;;;;5051707;28;20460;-81
2022/07/19 03:55:00;;;;;;;2.63;2.07;;;;;;;;;;5051753;28;20930;-81
2022/07/19 03:57:26;;;;;;;2.40;1.90;;;;;;;;;;5051588;28;20373;-82
2022/07/19 03:59:52;;;;;;;3.33;2.08;;;;;;;;;;5051624;28;20415;-82
2022/07/19 04:02:18;;;;;;;3.03;2.25;;;;;;;;;;5052763;28;20624;-82
2022/07/19 04:04:44;;;;;;;2.60;2.10;;;;;;;;;;5055601;28;20401;-82
2022/07/19 04:07:10;;;;;;;2.28;1.90;;;;;;;;;;5048617;28;20377;-82
2022/07/19 04:09:36;;;;;;;3.05;2.00;;;;;;;;;;5049511;28;20964;-82
2022/07/19 04:12:02;;;;;;;3.03;1.90;;;;;;;;;;5042424;28;20466;-82
2022/07/19 04:14:28;;;;;;;3.28;2.05;;;;;;;;;;5055325;28;20393;-82
2022/07/19 04:16:54;;;;;;;2.08;1.88;;;;;;;;;;5055117;28;20432;-82
2022/07/19 04:19:20;;;;;;;2.15;1.75;;;;;;;;;;5055299;28;20429;-82
2022/07/19 04:21:46;;;;;;;3.42;2.20;;;;;;;;;;5055095;28;20385;-82
2022/07/19 04:24:12;;;;;;;2.38;1.88;;;;;;;;;;5050074;28;20416;-81
2022/07/19 04:26:38;;;;;;;2.30;2.10;;;;;;;;;;5054272;28;20754;-82
2022/07/19 04:29:04;;;;;;;4.32;2.10;;;;;;;;;;5043700;28;20472;-82
2022/07/19 04:31:30;;;;;;;2.67;1.85;;;;;;;;;;5054718;28;20457;-82
2022/07/19 04:33:56;;;;;;;2.63;1.83;;;;;;;;;;5053743;28;20396;-82
2022/07/19 04:36:22;;;;;;;2.17;2.00;;;;;;;;;;5054981;28;20750;-82
2022/07/19 04:38:48;;;;;;;2.40;1.80;;;;;;;;;;5054019;28;20381;-82
2022/07/19 04:41:14;;;;;;;2.08;1.70;;;;;;;;;;5054823;28;20866;-82
2022/07/19 04:43:40;;;;;;;3.30;1.88;;;;;;;;;;5054670;28;20401;-82
2022/07/19 04:46:07;;;;;;;2.47;1.65;;;;;;;;;;5046000;28;20731;-82
2022/07/19 04:48:33;;;;;;;1.80;1.50;;;;;;;;;;5054717;28;20855;-82
2022/07/19 04:50:59;;;;;;;1.95;1.75;;;;;;;;;;5054576;28;20388;-82
2022/07/19 04:53:25;;;;;;;3.05;1.70;;;;;;;;;;5054622;28;20377;-82
2022/07/19 04:55:51;;;;;;;2.75;1.88;;;;;;;;;;5054370;28;20476;-82
2022/07/19 04:58:17;;;;;;;4.20;2.15;;;;;;;;;;5048826;28;20383;-82
2022/07/19 05:00:43;;;;;;;3.17;1.90;;;;;;;;;;5046382;28;20443;-82
2022/07/19 05:03:09;;;;;;;4.45;1.98;;;;;;;;;;5054164;28;20401;-82
2022/07/19 05:05:35;;;;;;;8.97;2.07;;;;;;;;;;5054246;28;20397;-82
2022/07/19 05:08:01;;;;;;;5.53;2.30;;;;;;;;;;5054184;28;20376;-81
2022/07/19 05:10:27;;;;;;;2.72;2.20;;;;;;;;;;5049936;28;20371;-81
2022/07/19 05:12:53;;;;;;;2.50;2.30;;;;;;;;;;5047902;28;20374;-82
2022/07/19 05:15:19;;;;;;;2.03;1.83;;;;;;;;;;5054196;28;20382;-81
2022/07/19 05:17:45;;;;;;;3.33;1.70;;;;;;;;;;5054037;28;20373;-82
2022/07/19 05:20:13;;;;;;;2.40;2.03;;;;;;;;;;5054030;28;20866;-82
2022/07/19 05:22:39;;;;;;;1.90;1.63;;;;;;;;;;5054055;28;20393;-82
2022/07/19 05:25:06;;;;;;;3.10;1.67;;;;;;;;;;5053868;28;20419;-82
2022/07/19 05:27:32;;;;;;;2.00;1.77;;;;;;;;;;5053950;28;20409;-82
2022/07/19 05:29:58;;;;;;;3.92;1.80;;;;;;;;;;5053851;28;20384;-81
2022/07/19 05:32:24;;;;;;;2.50;1.90;;;;;;;;;;5053910;28;20390;-82
2022/07/19 05:34:50;;;;;;;2.23;1.60;;;;;;;;;;5035919;28;20397;-81
2022/07/19 05:37:16;;;;;;;2.22;1.88;;;;;;;;;;5053642;28;20420;-82
2022/07/19 05:39:42;;;;;;;2.55;1.70;;;;;;;;;;5053735;28;20381;-79
2022/07/19 05:42:08;;;;;;;3.20;1.73;;;;;;;;;;5053600;28;20393;-82
2022/07/19 05:44:34;;;;;;;3.55;1.75;;;;;;;;;;5049987;28;20872;-81
2022/07/19 05:47:00;;;;;;;3.25;1.88;;;;;;;;;;5048274;28;20855;-80
2022/07/19 05:49:26;;;;;;;3.70;1.80;;;;;;;;;;5053551;28;20384;-80
2022/07/19 05:51:52;;;;;;;5.40;1.80;;;;;;;;;;5053716;28;20451;-79
2022/07/19 05:54:18;;;;;;;4.73;1.80;;;;;;;;;;5050268;28;20785;-80
2022/07/19 05:56:44;;;;;;;3.65;1.80;;;;;;;;;;5053625;28;20382;-80
2022/07/19 05:59:10;;;;;;;2.35;1.80;;;;;;;;;;5053261;28;20417;-80
2022/07/19 06:01:36;;;;;;;3.25;1.70;;;;;;;;;;5053044;28;20417;-82
2022/07/19 06:04:02;;;;;;;3.83;1.85;;;;;;;;;;5053103;28;20413;-81
2022/07/19 06:06:30;;;;;;;3.60;1.70;;;;;;;;;;5045812;28;20383;-82
2022/07/19 06:08:56;;;;;;;2.30;1.70;;;;;;;;;;5053319;28;20373;-82
2022/07/19 06:11:22;;;;;;;2.20;1.60;;;;;;;;;;5053200;28;20435;-81
2022/07/19 06:13:49;;;;;;;3.70;1.75;;;;;;;;;;5053119;28;20555;-82
2022/07/19 06:16:15;;;;;;;2.00;1.80;;;;;;;;;;5053278;28;20435;-82
2022/07/19 06:18:41;;;;;;;3.53;1.65;;;;;;;;;;5038879;28;20385;-80
2022/07/19 06:21:12;;;;;;;1.90;1.67;;;;;;;;;;5052905;28;20385;-79
2022/07/19 06:23:38;;;;;;;3.20;1.70;;;;;;;;;;5052663;28;20896;-82
2022/07/19 06:26:04;;;;;;;1.70;1.55;;;;;;;;;;5052077;28;20464;-82
2022/07/19 06:28:30;;;;;;;2.57;1.80;;;;;;;;;;5052728;28;20381;-82
2022/07/19 06:30:56;;;;;;;3.28;1.70;;;;;;;;;;5052454;28;20464;-82
2022/07/19 06:33:23;;;;;;;3.22;1.73;;;;;;;;;;5052669;28;20458;-81
2022/07/19 06:35:49;;;;;;;2.53;1.70;;;;;;;;;;5052582;28;20396;-82
2022/07/19 06:38:15;;;;;;;1.88;1.77;;;;;;;;;;5052220;28;20464;-79
2022/07/19 06:40:41;;;;;;;2.25;1.75;;;;;;;;;;5038609;28;20373;-79
2022/07/19 06:43:07;;;;;;;3.87;2.00;;;;;;;;;;5052674;28;20530;-79
2022/07/19 06:45:33;;;;;;;2.63;1.67;;;;;;;;;;5040782;28;20401;-80
2022/07/19 06:47:59;;;;;;;2.30;1.70;;;;;;;;;;5041512;28;20392;-80
2022/07/19 06:50:25;;;;;;;3.00;2.00;;;;;;;;;;5046380;28;20446;-80
2022/07/19 06:52:51;;;;;;;3.15;1.85;;;;;;;;;;5039187;28;20443;-80
2022/07/19 06:55:17;;;;;;;4.07;2.20;;;;;;;;;;5052432;28;20415;-80
2022/07/19 06:57:43;;;;;;;3.05;2.33;;;;;;;;;;5034204;28;20984;-80
2022/07/19 07:00:11;;;;;;;4.53;1.90;;;;;;;;;;5052220;28;20435;-80
2022/07/19 07:02:37;;;;;;;5.35;2.20;;;;;;;;;;5044173;28;20908;-80
2022/07/19 07:05:03;;;;;;;3.50;1.83;;;;;;;;;;5049176;28;20454;-80
2022/07/19 07:07:29;;;;;;;2.17;1.70;;;;;;;;;;5040097;28;20915;-80
2022/07/19 07:09:55;;;;;;;4.13;2.17;;;;;;;;;;5050030;28;20534;-79
2022/07/19 07:12:21;;;;;;;3.40;1.85;;;;;;;;;;5052399;28;20439;-80
2022/07/19 07:14:47;;;;;;;4.80;1.77;;;;;;;;;;5052060;28;20393;-80
2022/07/19 07:17:13;;;;;;;4.25;1.92;;;;;;;;;;5052082;28;20386;-80
2022/07/19 07:19:39;;;;;;;4.45;2.05;;;;;;;;;;5052069;28;20497;-80
2022/07/19 07:22:05;;;;;;;2.85;1.80;;;;;;;;;;5052259;28;20389;-80
2022/07/19 07:24:31;;;;;;;3.33;1.92;;;;;;;;;;5051928;28;20436;-80
2022/07/19 07:26:57;;;;;;;2.28;1.90;;;;;;;;;;5051898;28;20554;-80
2022/07/19 07:29:23;;;;;;;2.55;1.58;;;;;;;;;;5052200;28;20834;-80
2022/07/19 07:31:50;;;;;;;2.97;1.85;;;;;;;;;;5051869;28;20381;-80
2022/07/19 07:34:16;;;;;;;6.03;1.80;;;;;;;;;;5034085;28;20385;-80
2022/07/19 07:36:44;;;;;;;5.18;1.90;;;;;;;;;;5053712;28;20400;-80
2022/07/19 07:39:10;;;;;;;3.47;1.90;;;;;;;;;;5038068;28;20823;-80
2022/07/19 07:41:36;;;;;;;16.42;2.58;;;;;;;;;;5055967;28;20385;-80
2022/07/19 07:44:02;;;;;;;5.55;2.20;;;;;;;;;;5055722;28;20401;-80
2022/07/19 07:46:28;;;;;;;3.38;1.95;;;;;;;;;;5046986;28;20412;-80
2022/07/19 07:48:54;;;;;;;4.90;1.70;;;;;;;;;;5055719;28;20796;-80
2022/07/19 07:51:20;;;;;;;3.47;1.67;;;;;;;;;;5055685;28;20460;-80
2022/07/19 07:53:46;;;;;;;3.27;1.73;;;;;;;;;;5055575;28;20378;-80
2022/07/19 07:56:12;;;;;;;4.70;2.00;;;;;;;;;;5055509;28;20788;-80
2022/07/19 07:58:38;;;;;;;5.17;1.77;;;;;;;;;;5055476;28;20385;-80
2022/07/19 08:01:04;;;;;;;4.67;1.97;;;;;;;;;;5055469;28;20409;-81
2022/07/19 08:03:30;;;;;;;3.42;1.90;;;;;;;;;;5055340;28;20393;-80
2022/07/19 08:05:57;;;;;;;4.13;1.95;;;;;;;;;;5055336;28;20796;-80
2022/07/19 08:08:26;;;;;;;9.20;2.15;;;;;;;;;;5055362;28;20883;-81
2022/07/19 08:10:52;;;;;;;5.57;1.90;;;;;;;;;;5055318;28;20383;-81
2022/07/19 08:13:18;;;;;;;13.90;2.45;;;;;;;;;;5055237;28;20381;-80
2022/07/19 08:15:44;;;;;;;36.45;3.88;;;;;;;;;;5034179;28;20742;-80
2022/07/19 08:18:10;;;;;;;17.17;2.85;;;;;;;;;;5055182;28;20377;-80
2022/07/19 08:20:36;;;;;;;20.05;3.03;;;;;;;;;;5055210;28;20920;-81
2022/07/19 08:23:02;;;;;;;7.32;1.90;;;;;;;;;;5055114;28;20382;-81
2022/07/19 08:25:28;;;;;;;3.40;1.70;;;;;;;;;;5055016;28;20511;-81
2022/07/19 08:27:54;;;;;;;5.35;2.10;;;;;;;;;;5054978;28;20473;-80
2022/07/19 08:30:20;;;;;;;4.05;1.83;;;;;;;;;;5054934;28;20369;-80
2022/07/19 08:32:46;;;;;;;5.72;2.08;;;;;;;;;;5054929;28;20960;-80
2022/07/19 08:35:13;;;;;;;5.93;1.60;;;;;;;;;;5054857;28;20414;-81
2022/07/19 08:37:39;;;;;;;5.40;1.93;;;;;;;;;;5054536;28;20461;-80
2022/07/19 08:40:06;;;;;;;5.60;1.65;;;;;;;;;;5054644;28;20464;-81
2022/07/19 08:42:32;;;;;;;3.75;1.60;;;;;;;;;;5054787;28;20432;-80
2022/07/19 08:45:00;;;;;;;2.97;1.70;;;;;;;;;;5047859;28;20435;-80
2022/07/19 08:47:27;;;;;;;2.22;1.70;;;;;;;;;;5052682;28;20378;-80
2022/07/19 08:49:53;;;;;;;3.67;1.90;;;;;;;;;;5036681;28;20742;-80
2022/07/19 08:52:19;;;;;;;3.00;1.83;;;;;;;;;;5054616;28;20855;-80
2022/07/19 08:54:45;;;;;;;4.60;1.70;;;;;;;;;;5054754;28;20538;-80
2022/07/19 08:59:57;;;;;;;2.72;1.60;;;;;;;;;;5048025;28;20394;-81
2022/07/19 09:02:23;;;;;;;2.80;1.80;;;;;;;;;;5045941;28;20881;-80
2022/07/19 09:05:03;;;;;;;3.00;1.42;;;;;;;;;;5054277;28;20420;-81
2022/07/19 09:07:29;;;;;;;3.17;1.40;;;;;;;;;;5036377;28;20758;-81
2022/07/19 09:10:14;;;;;;;2.78;1.63;;;;;;;;;;5054304;28;20382;-81
2022/07/19 09:12:59;;;;;;;3.60;1.40;;;;;;;;;;5054207;28;21019;-80
2022/07/19 09:15:44;;;;;;;3.73;1.50;;;;;;;;;;5054403;28;20389;-81
2022/07/19 09:18:15;;;;;;;4.68;1.70;;;;;;;;;;5054081;28;20850;-81
2022/07/19 09:20:42;;;;;;;5.00;1.65;;;;;;;;;;5054105;28;20424;-80
2022/07/19 09:23:08;;;;;;;28.13;2.83;;;;;;;;;;5054080;28;20437;-80
2022/07/19 09:25:41;;;;;;;6.13;1.57;;;;;;;;;;5053778;28;20405;-81
2022/07/19 09:28:08;;;;;;;3.83;1.50;;;;;;;;;;5054020;28;20862;-80
2022/07/19 09:30:36;;;;;;;1.73;1.50;;;;;;;;;;5054146;28;20374;-80
2022/07/19 09:33:07;;;;;;;3.53;1.52;;;;;;;;;;5053976;28;20381;-80
2022/07/19 09:35:37;;;;;;;3.80;1.60;;;;;;;;;;5053733;28;20384;-80
2022/07/19 09:38:16;;;;;;;2.63;1.43;;;;;;;;;;5053822;28;20794;-80
2022/07/19 09:40:42;;;;;;;2.40;1.57;;;;;;;;;;5053667;28;20468;-80
2022/07/19 09:43:08;;;;;;;1.85;1.30;;;;;;;;;;5046157;28;20430;-80
2022/07/19 09:45:34;;;;;;;2.88;1.30;;;;;;;;;;5032572;28;20409;-81
2022/07/19 09:48:03;;;;;;;3.05;1.60;;;;;;;;;;5053000;28;20385;-82
2022/07/19 09:50:29;;;;;;;2.63;1.65;;;;;;;;;;5053234;28;20800;-82
2022/07/19 09:52:57;;;;;;;4.50;1.67;;;;;;;;;;5053067;28;20443;-82
2022/07/19 09:55:23;;;;;;;4.07;1.83;;;;;;;;;;5053416;28;20814;-82
2022/07/19 09:57:50;;;;;;;5.93;1.95;;;;;;;;;;5053163;28;20382;-84
2022/07/19 10:00:18;;;;;;;3.83;1.73;;;;;;;;;;5053477;28;20908;-84
2022/07/19 10:02:45;;;;;;;6.53;1.88;;;;;;;;;;5051076;28;20408;-84
2022/07/19 10:05:37;;;;;;;3.83;1.70;;;;;;;;;;5053133;28;20897;-84
2022/07/19 10:08:04;;;;;;;3.88;1.77;;;;;;;;;;5046022;28;20380;-84
2022/07/19 10:10:30;;;;;;;4.25;1.85;;;;;;;;;;5044974;28;20795;-84
2022/07/19 10:12:57;;;;;;;4.75;2.13;;;;;;;;;;5037532;28;20391;-84
2022/07/19 10:15:23;;;;;;;3.28;2.22;;;;;;;;;;5032221;28;20888;-84
2022/07/19 10:18:11;;;;;;;4.32;2.50;;;;;;;;;;5048383;28;20424;-84
2022/07/19 10:20:38;;;;;;;4.50;1.90;;;;;;;;;;5044276;28;20786;-84
2022/07/19 10:23:04;;;;;;;2.20;1.70;;;;;;;;;;5046722;28;20386;-83
2022/07/19 10:25:39;;;;;;;3.13;1.77;;;;;;;;;;5048766;28;20420;-84
2022/07/19 10:28:05;;;;;;;3.20;1.97;;;;;;;;;;5038557;28;20429;-84
2022/07/19 10:30:38;;;;;;;5.00;2.28;;;;;;;;;;5053675;28;20856;-83
2022/07/19 10:33:24;;;;;;;3.97;1.80;;;;;;;;;;5048360;28;20412;-84
2022/07/19 10:35:50;;;;;;;5.00;1.60;;;;;;;;;;5049814;28;20912;-83
2022/07/19 10:38:16;;;;;;;4.65;1.90;;;;;;;;;;5050766;28;20875;-85
2022/07/19 10:40:46;;;;;;;2.03;1.50;;;;;;;;;;5051509;28;20381;-82
2022/07/19 10:43:13;;;;;;;2.53;1.70;;;;;;;;;;5051764;28;20381;-83
2022/07/19 10:45:41;;;;;;;2.70;1.50;;;;;;;;;;5043807;28;20412;-83
2022/07/19 10:48:08;;;;;;;3.38;1.40;;;;;;;;;;5047394;28;20409;-83
2022/07/19 10:50:53;;;;;;;2.97;1.58;;;;;;;;;;5047025;28;20387;-84
2022/07/19 10:53:37;;;;;;;4.78;1.60;;;;;;;;;;5047910;28;20397;-85
2022/07/19 10:56:19;;;;;;;2.05;1.70;;;;;;;;;;5052250;28;20409;-83
2022/07/19 10:58:52;;;;;;;3.67;1.30;;;;;;;;;;5052180;28;20376;-84
2022/07/19 11:01:19;;;;;;;3.20;1.60;;;;;;;;;;5052199;28;20432;-85
2022/07/19 11:03:47;;;;;;;2.20;1.73;;;;;;;;;;5042856;28;20410;-84
2022/07/19 11:06:19;;;;;;;4.20;1.70;;;;;;;;;;5050193;28;20870;-83
2022/07/19 11:08:45;;;;;;;2.38;1.58;;;;;;;;;;5044929;28;20548;-84
2022/07/19 11:11:12;;;;;;;2.38;1.70;;;;;;;;;;5036013;28;20907;-83
2022/07/19 11:13:40;;;;;;;3.47;1.90;;;;;;;;;;5049030;28;20502;-84
2022/07/19 11:16:06;;;;;;;2.53;1.55;;;;;;;;;;5052108;28;20479;-84
2022/07/19 11:18:33;;;;;;;1.83;1.50;;;;;;;;;;5052088;28;20392;-84
2022/07/19 11:21:00;;;;;;;2.42;1.52;;;;;;;;;;5052373;28;20401;-84
2022/07/19 11:23:30;;;;;;;5.72;1.60;;;;;;;;;;5048074;28;20406;-84
2022/07/19 11:26:20;;;;;;;2.50;1.85;;;;;;;;;;5044538;28;20405;-85
2022/07/19 11:28:47;;;;;;;2.75;1.80;;;;;;;;;;5042030;28;20392;-84
2022/07/19 11:31:23;;;;;;;2.92;1.50;;;;;;;;;;5052152;28;20539;-86
2022/07/19 11:33:52;;;;;;;3.13;1.50;;;;;;;;;;5051876;28;20423;-85
2022/07/19 11:36:19;;;;;;;3.00;1.60;;;;;;;;;;5035425;28;20772;-86
2022/07/19 11:38:45;;;;;;;3.17;1.50;;;;;;;;;;5048629;28;20382;-85
2022/07/19 11:41:18;;;;;;;2.42;1.40;;;;;;;;;;5051937;28;20388;-86
2022/07/19 11:43:58;;;;;;;2.20;1.67;;;;;;;;;;5049582;28;20401;-85
2022/07/19 11:46:25;;;;;;;3.20;1.60;;;;;;;;;;5041722;28;20467;-85
2022/07/19 11:48:56;;;;;;;3.75;1.50;;;;;;;;;;5051867;28;20428;-84
2022/07/19 11:51:22;;;;;;;2.80;1.40;;;;;;;;;;5051808;28;20386;-85
2022/07/19 11:53:50;;;;;;;2.05;1.60;;;;;;;;;;5051750;28;20855;-82
2022/07/19 11:56:19;;;;;;;4.75;1.60;;;;;;;;;;5042698;28;20734;-84
2022/07/19 11:58:45;;;;;;;2.67;1.50;;;;;;;;;;5050089;28;20385;-83
2022/07/19 12:01:11;;;;;;;2.60;1.58;;;;;;;;;;5036122;28;20387;-83
2022/07/19 12:03:37;;;;;;;2.13;1.50;;;;;;;;;;5048734;28;20769;-83
2022/07/19 12:06:05;;;;;;;2.40;1.50;;;;;;;;;;5042288;28;20406;-84
2022/07/19 12:08:33;;;;;;;3.83;1.50;;;;;;;;;;5037876;28;20423;-84
2022/07/19 12:10:59;;;;;;;2.85;1.50;;;;;;;;;;5051360;28;20900;-84
2022/07/19 12:13:29;;;;;;;3.22;1.70;;;;;;;;;;5051584;28;20394;-84
2022/07/19 12:15:56;;;;;;;2.30;1.50;;;;;;;;;;5051761;28;20409;-84
2022/07/19 12:18:23;;;;;;;2.93;1.40;;;;;;;;;;5051583;28;20431;-83
2022/07/19 12:21:08;;;;;;;3.05;1.63;;;;;;;;;;5051525;28;20377;-84
2022/07/19 12:23:34;;;;;;;2.45;1.40;;;;;;;;;;5038989;28;20380;-84
2022/07/19 12:26:04;;;;;;;4.63;1.50;;;;;;;;;;5051717;28;20385;-84
2022/07/19 12:28:30;;;;;;;2.33;1.50;;;;;;;;;;5055430;28;20396;-84
2022/07/19 12:31:05;;;;;;;4.87;1.87;;;;;;;;;;5053693;28;20382;-83
2022/07/19 12:33:32;;;;;;;4.63;1.67;;;;;;;;;;5037686;28;20501;-84
2022/07/19 12:35:58;;;;;;;4.47;1.60;;;;;;;;;;5035592;28;20876;-85
2022/07/19 12:38:33;;;;;;;2.08;1.60;;;;;;;;;;5035572;28;20406;-84
2022/07/19 12:41:09;;;;;;;2.20;1.58;;;;;;;;;;5037751;28;20390;-84
2022/07/19 12:43:36;;;;;;;3.10;1.70;;;;;;;;;;5044095;28;20925;-84
2022/07/19 12:46:02;;;;;;;2.42;1.80;;;;;;;;;;5043566;28;20398;-84
2022/07/19 12:48:28;;;;;;;2.95;1.55;;;;;;;;;;5047672;28;20381;-84
2022/07/19 12:50:54;;;;;;;4.20;1.67;;;;;;;;;;5054692;28;20479;-83
2022/07/19 12:53:21;;;;;;;1.83;1.63;;;;;;;;;;5045904;28;20625;-84
2022/07/19 12:55:47;;;;;;;2.35;1.45;;;;;;;;;;5038767;28;20393;-83
2022/07/19 12:59:38;;;;;;;2.10;1.60;;;;;;;;;;5024813;28;20862;-84
2022/07/19 13:01:01;;;;;;;3.22;2.00;;;;;;;;;;5034642;28;20391;-84
2022/07/19 13:03:27;;;;;;;2.13;1.50;;;;;;;;;;5037595;28;20877;-84
2022/07/19 13:05:53;;;;;;;3.63;1.77;;;;;;;;;;5049434;28;20801;-84
2022/07/19 13:08:19;;;;;;;4.80;2.20;;;;;;;;;;5029673;28;20433;-84
2022/07/19 13:10:45;;;;;;;3.00;1.50;;;;;;;;;;5052225;28;20748;-84
2022/07/19 13:13:11;;;;;;;3.50;1.60;;;;;;;;;;5057108;28;20850;-84
2022/07/19 13:15:37;;;;;;;2.88;1.67;;;;;;;;;;5054235;28;20395;-84
2022/07/19 13:18:03;;;;;;;3.30;1.60;;;;;;;;;;5053353;28;20377;-84
2022/07/19 13:20:29;;;;;;;4.00;1.70;;;;;;;;;;5049108;28;20384;-84
2022/07/19 13:22:55;;;;;;;3.33;1.50;;;;;;;;;;5042966;28;20385;-86
2022/07/19 13:25:21;;;;;;;2.42;1.50;;;;;;;;;;5054206;28;20409;-85
2022/07/19 13:27:48;;;;;;;2.50;1.77;;;;;;;;;;5053930;28;20404;-87
2022/07/19 13:30:14;;;;;;;3.20;1.73;;;;;;;;;;5051067;28;20417;-86
2022/07/19 13:32:40;;;;;;;4.25;1.48;;;;;;;;;;5041117;28;20386;-85
2022/07/19 13:35:06;;;;;;;4.03;1.50;;;;;;;;;;5037537;28;20375;-85
2022/07/19 13:37:32;;;;;;;3.03;1.67;;;;;;;;;;5049356;28;20409;-84
2022/07/19 13:39:58;;;;;;;5.40;1.90;;;;;;;;;;5046690;28;20382;-88
2022/07/19 13:42:24;;;;;;;3.60;1.85;;;;;;;;;;5053631;28;20926;-86
2022/07/19 13:44:50;;;;;;;1.92;1.50;;;;;;;;;;5047883;28;20407;-84
2022/07/19 13:47:16;;;;;;;2.78;1.70;;;;;;;;;;5050579;28;20378;-85
2022/07/19 13:49:42;;;;;;;3.03;1.67;;;;;;;;;;5053795;28;20511;-85
2022/07/19 13:52:08;;;;;;;3.42;1.75;;;;;;;;;;5043523;28;20482;-83
2022/07/19 13:54:34;;;;;;;4.03;1.70;;;;;;;;;;5053655;28;20905;-81
2022/07/19 13:57:00;;;;;;;3.70;1.70;;;;;;;;;;5053350;28;20386;-81
2022/07/19 13:59:26;;;;;;;3.42;1.73;;;;;;;;;;5053279;28;20381;-82
2022/07/19 14:01:53;;;;;;;3.40;1.83;;;;;;;;;;5053426;28;20382;-81
2022/07/19 14:04:19;;;;;;;3.25;1.77;;;;;;;;;;5053493;28;20412;-82
2022/07/19 14:06:45;;;;;;;3.17;1.58;;;;;;;;;;5053122;28;20468;-81
2022/07/19 14:09:11;;;;;;;2.75;1.60;;;;;;;;;;5053142;28;20382;-81
2022/07/19 14:11:37;;;;;;;2.90;1.57;;;;;;;;;;5034437;28;20389;-81
2022/07/19 14:14:04;;;;;;;2.42;1.63;;;;;;;;;;5052146;28;20397;-81
2022/07/19 14:16:30;;;;;;;4.35;1.73;;;;;;;;;;5053214;28;20388;-81
2022/07/19 14:18:56;;;;;;;3.40;1.45;;;;;;;;;;5052964;28;20381;-82
2022/07/19 14:21:22;;;;;;;3.53;1.55;;;;;;;;;;5050057;28;20382;-81
2022/07/19 14:23:48;;;;;;;2.90;1.50;;;;;;;;;;5041421;28;20496;-81
2022/07/19 14:26:14;;;;;;;4.78;1.55;;;;;;;;;;5052834;28;20384;-81
2022/07/19 14:28:40;;;;;;;2.17;1.80;;;;;;;;;;5052769;28;20389;-81
2022/07/19 14:31:06;;;;;;;3.40;1.70;;;;;;;;;;5052622;28;20377;-80
2022/07/19 14:33:33;;;;;;;1.83;1.40;;;;;;;;;;5052714;28;20377;-81
2022/07/19 14:35:59;;;;;;;3.57;1.60;;;;;;;;;;5052756;28;20385;-81
2022/07/19 14:38:25;;;;;;;4.47;1.70;;;;;;;;;;5052239;28;20515;-81
2022/07/19 14:40:51;;;;;;;2.85;1.50;;;;;;;;;;5040562;28;20381;-81
2022/07/19 14:43:17;;;;;;;1.92;1.60;;;;;;;;;;5045453;28;20413;-81
2022/07/19 14:45:43;;;;;;;3.00;1.67;;;;;;;;;;5043026;28;20454;-81